Time;durP1;ratioP1;P1;durP2;ratioP2;P2;SDS_P1;SDS_P2;PMS_P1;PMS_P2;Temp;Humidity;BMP_temperature;BMP_pressure;BME280_temperature;BME280_humidity;BME280_pressure;Samples;Min_cycle;Max_cycle;Signal;HPM_P1;HPM_P2
2021/10/19 00:00:08;;;;;;;;;;;;;;;7.86;100.00;101196.75;6282600;28;19920;-87
2021/10/19 00:03:09;;;;;;;;;;;;;;;7.66;100.00;101193.06;6282655;28;19943;-86
2021/10/19 00:06:10;;;;;;;;;;;;;;;7.59;100.00;101195.88;6266055;28;19921;-86
2021/10/19 00:09:11;;;;;;;;;;;;;;;7.53;100.00;101199.50;6265639;28;19926;-86
2021/10/19 00:12:11;;;;;;;;;;;;;;;7.41;100.00;101192.06;6300105;28;19968;-87
2021/10/19 00:15:13;;;;;;;;;;;;;;;7.35;100.00;101194.84;6282256;28;19939;-87
2021/10/19 00:18:13;;;;;;;;;;;;;;;7.22;100.00;101197.81;6282334;28;20292;-87
2021/10/19 00:21:14;;;;;;;;;;;;;;;7.01;100.00;101201.88;6265492;28;19955;-87
2021/10/19 00:24:14;;;;;;;;;;;;;;;6.99;100.00;101202.81;6282048;28;19921;-86
2021/10/19 00:27:15;;;;;;;;;;;;;;;6.97;100.00;101202.84;6300156;28;19976;-87
2021/10/19 00:30:16;;;;;;;;;;;;;;;6.91;100.00;101202.16;6299655;28;19931;-86
2021/10/19 00:33:18;;;;;;;;;;;;;;;6.85;100.00;101201.44;6282092;28;19920;-87
2021/10/19 00:36:18;;;;;;;;;;;;;;;6.74;100.00;101207.81;6265140;28;19921;-87
2021/10/19 00:39:19;;;;;;;;;;;;;;;6.75;100.00;101205.16;6265102;28;19920;-87
2021/10/19 00:42:19;;;;;;;;;;;;;;;6.66;100.00;101213.19;6281639;28;19920;-86
2021/10/19 00:45:20;;;;;;;;;;;;;;;6.60;100.00;101210.75;6265299;28;19935;-87
2021/10/19 00:48:24;;;;;;;;;;;;;;;6.49;100.00;101212.81;6281637;28;19924;-87
2021/10/19 00:51:25;;;;;;;;;;;;;;;6.34;100.00;101209.72;6281974;28;20019;-87
2021/10/19 00:54:26;;;;;;;;;;;;;;;6.32;100.00;101202.84;6264798;28;19928;-86
2021/10/19 00:57:26;;;;;;;;;;;;;;;6.20;100.00;101210.03;6264773;28;20372;-86
2021/10/19 01:00:27;;;;;;;;;;;;;;;6.19;100.00;101215.25;6264668;28;19920;-86
2021/10/19 01:03:29;;;;;;;;;;;;;;;6.20;100.00;101212.63;6281293;28;20339;-87
2021/10/19 01:06:29;;;;;;;;;;;;;;;6.14;100.00;101211.94;6281205;28;19920;-86
2021/10/19 01:09:30;;;;;;;;;;;;;;;6.06;100.00;101209.50;6280954;28;19967;-86
2021/10/19 01:12:31;;;;;;;;;;;;;;;5.94;100.00;101208.03;6281088;28;19921;-86
2021/10/19 01:15:33;;;;;;;;;;;;;;;5.92;100.00;101201.19;6280885;28;19920;-86
2021/10/19 01:18:34;;;;;;;;;;;;;;;5.83;100.00;101199.66;6280923;28;19966;-87
2021/10/19 01:21:35;;;;;;;;;;;;;;;5.80;100.00;101195.38;6280870;28;19921;-86
2021/10/19 01:24:36;;;;;;;;;;;;;;;5.67;100.00;101208.66;6264076;28;19931;-86
2021/10/19 01:27:46;;;;;;;;;;;;;;;5.61;100.00;101209.66;6264060;28;19924;-86
2021/10/19 01:30:49;;;;;;;;;;;;;;;5.58;100.00;101209.69;6263876;28;19920;-86
2021/10/19 01:33:50;;;;;;;;;;;;;;;5.53;100.00;101208.97;6280493;28;20410;-86
2021/10/19 01:36:50;;;;;;;;;;;;;;;5.50;100.00;101206.44;6263734;28;19920;-86
2021/10/19 01:39:51;;;;;;;;;;;;;;;5.44;100.00;101204.84;6280186;28;20407;-86
2021/10/19 01:42:52;;;;;;;;;;;;;;;5.41;100.00;101205.72;6263320;28;19973;-86
2021/10/19 01:45:54;;;;;;;;;;;;;;;5.39;100.00;101204.06;6280252;28;19920;-86
2021/10/19 01:48:56;;;;;;;;;;;;;;;5.37;100.00;101203.25;6279345;28;19956;-86
2021/10/19 01:51:57;;;;;;;;;;;;;;;5.33;100.00;101196.44;6279957;28;20130;-86
2021/10/19 01:54:57;;;;;;;;;;;;;;;5.31;100.00;101205.97;6263357;28;20052;-86
2021/10/19 01:57:59;;;;;;;;;;;;;;;5.22;100.00;101212.19;6280001;28;19931;-86
2021/10/19 02:01:00;;;;;;;;;;;;;;;5.20;100.00;101216.53;6263138;28;20373;-87
2021/10/19 02:04:00;;;;;;;;;;;;;;;5.13;100.00;101215.81;6263185;28;19946;-86
2021/10/19 02:07:01;;;;;;;;;;;;;;;5.01;100.00;101216.91;6279634;28;19927;-86
2021/10/19 02:10:05;;;;;;;;;;;;;;;4.90;100.00;101225.75;6262931;28;19921;-86
2021/10/19 02:13:07;;;;;;;;;;;;;;;4.87;100.00;101225.81;6279525;28;20023;-86
2021/10/19 02:16:07;;;;;;;;;;;;;;;4.90;100.00;101226.63;6279402;28;20016;-86
2021/10/19 02:19:08;;;;;;;;;;;;;;;4.96;100.00;101233.38;6279406;28;20350;-86
2021/10/19 02:22:09;;;;;;;;;;;;;;;4.93;100.00;101234.31;6262729;28;20043;-87
2021/10/19 02:25:10;;;;;;;;;;;;;;;4.83;100.00;101236.19;6262730;28;19921;-86
2021/10/19 02:28:11;;;;;;;;;;;;;;;4.74;100.00;101238.13;6254504;28;20284;-87
2021/10/19 02:31:13;;;;;;;;;;;;;;;4.61;100.00;101242.63;6270959;28;19921;-86
2021/10/19 02:34:16;;;;;;;;;;;;;;;4.57;100.00;101247.03;6272486;28;19927;-87
2021/10/19 02:37:17;;;;;;;;;;;;;;;4.58;100.00;101256.47;6270953;28;19924;-84
2021/10/19 02:40:18;;;;;;;;;;;;;;;4.55;100.00;101245.31;6270937;28;19967;-84
2021/10/19 02:43:18;;;;;;;;;;;;;;;4.59;100.00;101252.16;6254376;28;19921;-85
2021/10/19 02:46:20;;;;;;;;;;;;;;;4.55;100.00;101251.38;6270843;28;20015;-84
2021/10/19 02:49:21;;;;;;;;;;;;;;;4.55;100.00;101255.66;6254447;28;19921;-84
2021/10/19 02:52:21;;;;;;;;;;;;;;;4.54;100.00;101261.72;6270840;28;19928;-84
2021/10/19 02:55:22;;;;;;;;;;;;;;;4.51;100.00;101260.06;6254028;28;20442;-86
2021/10/19 02:58:23;;;;;;;;;;;;;;;4.45;100.00;101260.16;6269836;28;19924;-86
2021/10/19 03:01:24;;;;;;;;;;;;;;;4.36;100.00;101255.97;6253806;28;20008;-86
2021/10/19 03:04:24;;;;;;;;;;;;;;;4.41;100.00;101264.50;6270493;28;19927;-86
2021/10/19 03:07:25;;;;;;;;;;;;;;;4.34;100.00;101269.78;6271697;28;19921;-86
2021/10/19 03:10:26;;;;;;;;;;;;;;;4.41;100.00;101271.44;6270256;28;19921;-86
2021/10/19 03:13:28;;;;;;;;;;;;;;;4.37;100.00;101262.84;6253800;28;19925;-86
2021/10/19 03:16:29;;;;;;;;;;;;;;;4.32;100.00;101268.97;6253805;28;19921;-86
2021/10/19 03:19:30;;;;;;;;;;;;;;;4.29;100.00;101272.47;6271411;28;19940;-87
2021/10/19 03:22:31;;;;;;;;;;;;;;;4.35;100.00;101274.09;6271301;28;19935;-86
2021/10/19 03:25:31;;;;;;;;;;;;;;;4.35;100.00;101263.78;6253542;28;19920;-86
2021/10/19 03:28:32;;;;;;;;;;;;;;;4.29;100.00;101264.72;6288309;28;19920;-86
2021/10/19 03:31:35;;;;;;;;;;;;;;;4.31;100.00;101275.88;6261511;28;20369;-86
2021/10/19 03:34:36;;;;;;;;;;;;;;;4.27;100.00;101274.22;6278541;28;19921;-87
2021/10/19 03:37:36;;;;;;;;;;;;;;;4.27;100.00;101278.53;6295970;28;19925;-86
2021/10/19 03:40:37;;;;;;;;;;;;;;;4.20;100.00;101286.38;6261444;28;19920;-87
2021/10/19 03:43:37;;;;;;;;;;;;;;;4.27;100.00;101278.53;6278038;28;20369;-87
2021/10/19 03:46:38;;;;;;;;;;;;;;;4.33;100.00;101274.13;6261602;28;19955;-86
2021/10/19 03:49:38;;;;;;;;;;;;;;;4.27;100.00;101275.94;6261369;28;20291;-86
2021/10/19 03:52:39;;;;;;;;;;;;;;;4.27;100.00;101263.88;6277902;28;19927;-86
2021/10/19 03:55:40;;;;;;;;;;;;;;;4.27;100.00;101268.19;6261562;28;19920;-87
2021/10/19 03:58:41;;;;;;;;;;;;;;;4.23;100.00;101269.97;6277832;28;19925;-87
2021/10/19 04:01:42;;;;;;;;;;;;;;;4.19;100.00;101276.06;6290845;28;20303;-86
2021/10/19 04:04:42;;;;;;;;;;;;;;;4.12;100.00;101280.47;6286112;28;19924;-87
2021/10/19 04:07:44;;;;;;;;;;;;;;;4.11;100.00;101288.22;6286200;28;19920;-86
2021/10/19 04:10:45;;;;;;;;;;;;;;;4.10;100.00;101279.66;6284696;28;19934;-86
2021/10/19 04:13:46;;;;;;;;;;;;;;;4.05;100.00;101278.84;6265769;28;19920;-86
2021/10/19 04:16:46;;;;;;;;;;;;;;;4.04;100.00;101282.31;6284791;28;19921;-86
2021/10/19 04:19:47;;;;;;;;;;;;;;;4.00;100.00;101281.50;6265744;28;19920;-86
2021/10/19 04:22:47;;;;;;;;;;;;;;;3.92;100.00;101282.50;6284736;28;20261;-85
2021/10/19 04:25:48;;;;;;;;;;;;;;;3.83;100.00;101276.56;6265545;28;19975;-86
2021/10/19 04:28:48;;;;;;;;;;;;;;;3.82;100.00;101280.00;6299716;28;19990;-86
2021/10/19 04:31:49;;;;;;;;;;;;;;;3.86;100.00;101278.25;6265167;28;19920;-85
2021/10/19 04:34:50;;;;;;;;;;;;;;;3.87;100.00;101274.81;6281961;28;19920;-86
2021/10/19 04:37:51;;;;;;;;;;;;;;;3.82;100.00;101274.00;6265380;28;19981;-85
2021/10/19 04:40:51;;;;;;;;;;;;;;;3.87;100.00;101272.22;6265124;28;19920;-84
2021/10/19 04:43:52;;;;;;;;;;;;;;;3.86;100.00;101274.81;6281832;28;19934;-83
2021/10/19 04:46:52;;;;;;;;;;;;;;;3.83;100.00;101274.00;6281765;28;20368;-84
2021/10/19 04:49:53;;;;;;;;;;;;;;;3.85;100.00;101284.31;6264974;28;20345;-82
2021/10/19 04:52:53;;;;;;;;;;;;;;;3.83;100.00;101280.88;6264599;28;20275;-81
2021/10/19 04:55:54;;;;;;;;;;;;;;;3.83;100.00;101283.47;6299279;28;19942;-81
2021/10/19 04:58:55;;;;;;;;;;;;;;;3.79;100.00;101272.31;6299150;28;20018;-80
2021/10/19 05:01:55;;;;;;;;;;;;;;;3.80;100.00;101280.91;6281150;28;20425;-81
2021/10/19 05:04:56;;;;;;;;;;;;;;;3.80;100.00;101284.34;6281102;28;20047;-81
2021/10/19 05:07:56;;;;;;;;;;;;;;;3.83;100.00;101280.88;6280556;28;20395;-81
2021/10/19 05:10:57;;;;;;;;;;;;;;;3.84;100.00;101280.84;6264310;28;19920;-82
2021/10/19 05:13:57;;;;;;;;;;;;;;;3.90;100.00;101281.66;6280753;28;19921;-81
2021/10/19 05:16:58;;;;;;;;;;;;;;;3.91;100.00;101289.38;6264215;28;20426;-81
2021/10/19 05:19:59;;;;;;;;;;;;;;;3.92;100.00;101293.66;6264224;28;20392;-81
2021/10/19 05:22:59;;;;;;;;;;;;;;;4.03;100.00;101296.94;6262950;28;19921;-81
2021/10/19 05:26:00;;;;;;;;;;;;;;;4.11;100.00;101298.56;6298332;28;19927;-81
2021/10/19 05:29:00;;;;;;;;;;;;;;;4.20;100.00;101301.88;6263879;28;19947;-81
2021/10/19 05:32:01;;;;;;;;;;;;;;;4.28;100.00;101299.16;6263677;28;19925;-81
2021/10/19 05:35:01;;;;;;;;;;;;;;;4.32;100.00;101287.91;6298342;28;19920;-81
2021/10/19 05:38:02;;;;;;;;;;;;;;;4.37;100.00;101301.63;6280355;28;19920;-81
2021/10/19 05:41:03;;;;;;;;;;;;;;;4.38;100.00;101298.16;6263702;28;20395;-81
2021/10/19 05:44:04;;;;;;;;;;;;;;;4.44;100.00;101298.03;6297961;28;19921;-82
2021/10/19 05:47:04;;;;;;;;;;;;;;;4.40;100.00;101304.13;6280156;28;19920;-81
2021/10/19 05:50:05;;;;;;;;;;;;;;;4.45;100.00;101306.69;6263421;28;19946;-81
2021/10/19 05:53:06;;;;;;;;;;;;;;;4.63;100.00;101314.13;6263136;28;19975;-81
2021/10/19 05:56:06;;;;;;;;;;;;;;;4.70;100.00;101314.88;6263337;28;19924;-81
2021/10/19 05:59:07;;;;;;;;;;;;;;;4.77;100.00;101316.47;6297523;28;20360;-81
2021/10/19 06:02:08;;;;;;;;;;;;;;;4.77;100.00;101316.47;6279825;28;19927;-81
2021/10/19 06:05:08;;;;;;;;;;;;;;;4.89;100.00;101319.75;6262958;28;19927;-81
2021/10/19 06:08:09;;;;;;;;;;;;;;;4.99;100.00;101324.72;6262988;28;19927;-81
2021/10/19 06:11:10;;;;;;;;;;;;;;;5.06;100.00;101322.88;6262864;28;19920;-81
2021/10/19 06:14:10;;;;;;;;;;;;;;;5.21;100.00;101332.13;6262676;28;19920;-81
2021/10/19 06:17:11;;;;;;;;;;;;;;;5.36;100.00;101338.75;6262727;28;19920;-81
2021/10/19 06:20:12;;;;;;;;;;;;;;;5.43;100.00;101337.72;6262705;28;19928;-81
2021/10/19 06:23:13;;;;;;;;;;;;;;;5.53;100.00;101343.59;6279105;28;20003;-83
2021/10/19 06:26:13;;;;;;;;;;;;;;;5.60;100.00;101348.63;6296857;28;19924;-81
2021/10/19 06:29:14;;;;;;;;;;;;;;;5.73;100.00;101351.81;6296671;28;19928;-82
2021/10/19 06:32:15;;;;;;;;;;;;;;;5.87;100.00;101359.31;6278898;28;19920;-81
2021/10/19 06:35:16;;;;;;;;;;;;;;;6.00;100.00;101355.59;6278791;28;19920;-81
2021/10/19 06:38:16;;;;;;;;;;;;;;;6.14;100.00;101357.91;6262456;28;19931;-81
2021/10/19 06:41:17;;;;;;;;;;;;;;;6.29;100.00;101356.69;6262264;28;19931;-82
2021/10/19 06:44:17;;;;;;;;;;;;;;;6.35;100.00;101356.56;6278730;28;20372;-81
2021/10/19 06:47:18;;;;;;;;;;;;;;;6.47;100.00;101367.56;6296487;28;19920;-83
2021/10/19 06:50:19;;;;;;;;;;;;;;;6.61;100.00;101378.44;6262291;28;20281;-81
2021/10/19 06:53:20;;;;;;;;;;;;;;;6.75;100.00;101375.53;6278472;28;19930;-81
2021/10/19 06:56:20;;;;;;;;;;;;;;;6.90;100.00;101363.91;6278723;28;19924;-82
2021/10/19 06:59:21;;;;;;;;;;;;;;;7.00;100.00;101362.78;6278816;28;20399;-81
2021/10/19 07:02:22;;;;;;;;;;;;;;;7.21;100.00;101372.66;6262084;28;19921;-82
2021/10/19 07:05:23;;;;;;;;;;;;;;;7.44;100.00;101374.63;6261967;28;19960;-82
2021/10/19 07:08:23;;;;;;;;;;;;;;;7.61;100.00;101368.13;6278344;28;19921;-81
2021/10/19 07:11:26;;;;;;;;;;;;;;;7.71;100.00;101377.34;6278456;28;19921;-81
2021/10/19 07:14:26;;;;;;;;;;;;;;;7.90;100.00;101369.88;6295901;28;19927;-82
2021/10/19 07:17:27;;;;;;;;;;;;;;;8.05;100.00;101374.66;6296235;28;19924;-82
2021/10/19 07:20:28;;;;;;;;;;;;;;;8.17;100.00;101380.38;6261809;28;19998;-81
2021/10/19 07:23:29;;;;;;;;;;;;;;;8.31;100.00;101369.56;6278226;28;19967;-81
2021/10/19 07:26:29;;;;;;;;;;;;;;;8.39;100.00;101362.38;6278110;28;19921;-81
2021/10/19 07:29:30;;;;;;;;;;;;;;;8.61;100.00;101365.19;6296015;28;19921;-81
2021/10/19 07:32:30;;;;;;;;;;;;;;;8.72;99.61;101376.09;6278006;28;19965;-82
2021/10/19 07:35:31;;;;;;;;;;;;;;;8.93;97.13;101376.31;6277977;28;20288;-80
2021/10/19 07:38:32;;;;;;;;;;;;;;;9.13;97.71;101379.09;6278119;28;19934;-80
2021/10/19 07:41:34;;;;;;;;;;;;;;;9.30;93.57;101372.44;6266494;28;20384;-80
2021/10/19 07:44:35;;;;;;;;;;;;;;;9.42;91.95;101378.06;6293615;28;19928;-80
2021/10/19 07:47:40;;;;;;;;;;;;;;;9.59;92.79;101387.06;6298613;28;19925;-81
2021/10/19 07:50:44;;;;;;;;;;;;;;;9.77;90.94;101377.72;6299467;28;20411;-80
2021/10/19 07:53:45;;;;;;;;;;;;;;;9.93;87.81;101381.47;6299131;28;20327;-81
2021/10/19 07:56:46;;;;;;;;;;;;;;;10.05;87.54;101391.44;6300506;28;19974;-80
2021/10/19 07:59:46;;;;;;;;;;;;;;;10.06;88.14;101387.91;6300429;28;20327;-80
2021/10/19 08:02:47;;;;;;;;;;;;;;;10.10;85.90;101393.88;6299215;28;19942;-80
2021/10/19 08:05:47;;;;;;;;;;;;;;;10.27;84.18;101396.72;6299010;28;20003;-80
2021/10/19 08:08:48;;;;;;;;;;;;;;;10.43;84.25;101394.38;6298914;28;20019;-81
2021/10/19 08:11:48;;;;;;;;;;;;;;;10.53;82.44;101399.25;6299219;28;19951;-83
2021/10/19 08:14:49;;;;;;;;;;;;;;;10.54;81.04;101403.53;6298671;28;19946;-83
2021/10/19 08:17:49;;;;;;;;;;;;;;;10.70;78.55;101404.63;6298878;28;19920;-82
2021/10/19 08:20:50;;;;;;;;;;;;;;;11.05;76.46;101412.78;6298980;28;19924;-83
2021/10/19 08:23:51;;;;;;;;;;;;;;;11.34;76.39;101423.78;6299852;28;19920;-82
2021/10/19 08:26:52;;;;;;;;;;;;;;;11.53;73.01;101423.84;6299682;28;19927;-83
2021/10/19 08:29:52;;;;;;;;;;;;;;;11.70;72.39;101423.97;6298678;28;20263;-82
2021/10/19 08:32:53;;;;;;;;;;;;;;;11.76;70.01;101413.25;6298404;28;20391;-81
2021/10/19 08:35:53;;;;;;;;;;;;;;;11.93;69.62;101409.06;6298264;28;19920;-82
2021/10/19 08:38:54;;;;;;;;;;;;;;;11.97;66.91;101410.63;6298372;28;19966;-83
2021/10/19 08:41:55;;;;;;;;;;;;;;;12.24;67.35;101406.72;6298192;28;19927;-82
2021/10/19 08:44:55;;;;;;;;;;;;;;;12.35;66.50;101405.38;6298072;28;20376;-81
2021/10/19 08:47:56;;;;;;;;;;;;;;;12.44;67.46;101397.94;6298066;28;19963;-84
2021/10/19 08:50:57;;;;;;;;;;;;;;;12.57;66.01;101392.13;6298225;28;19924;-84
2021/10/19 08:53:59;;;;;;;;;;;;;;;12.74;65.94;101389.53;6297986;28;20230;-84
2021/10/19 08:56:59;;;;;;;;;;;;;;;13.06;65.78;101387.09;6279895;28;20494;-85
2021/10/19 09:00:00;;;;;;;;;;;;;;;13.14;62.55;101384.94;6297887;28;20036;-83
2021/10/19 09:03:03;;;;;;;;;;;;;;;13.16;62.96;101388.34;6297761;28;19920;-82
2021/10/19 09:06:04;;;;;;;;;;;;;;;13.34;62.55;101385.72;6298933;28;19920;-82
2021/10/19 09:09:05;;;;;;;;;;;;;;;13.52;62.48;101392.63;6297662;28;20373;-82
2021/10/19 09:12:06;;;;;;;;;;;;;;;13.58;58.71;101394.09;6297649;28;19927;-82
2021/10/19 09:15:08;;;;;;;;;;;;;;;13.59;58.18;101399.28;6297376;28;20261;-81
2021/10/19 09:18:12;;;;;;;;;;;;;;;13.71;58.21;101389.88;6297523;28;20296;-82
2021/10/19 09:21:13;;;;;;;;;;;;;;;13.86;57.29;101398.75;6280744;28;19927;-82
2021/10/19 09:24:17;;;;;;;;;;;;;;;13.93;57.96;101392.22;6297388;28;19920;-83
2021/10/19 09:27:18;;;;;;;;;;;;;;;14.10;56.80;101388.69;6298360;28;20429;-82
2021/10/19 09:30:22;;;;;;;;;;;;;;;14.25;54.97;101387.84;6297186;28;19920;-82
2021/10/19 09:33:23;;;;;;;;;;;;;;;14.36;55.06;101384.63;6297012;28;19947;-82
2021/10/19 09:36:33;;;;;;;;;;;;;;;14.50;54.09;101382.06;6297001;28;19920;-81
2021/10/19 09:39:42;;;;;;;;;;;;;;;14.29;53.92;101373.63;6298223;28;19921;-82
2021/10/19 09:42:43;;;;;;;;;;;;;;;14.65;54.37;101388.25;6296782;28;19920;-85
2021/10/19 09:45:45;;;;;;;;;;;;;;;14.87;53.75;101387.88;6280282;28;19921;-83
2021/10/19 09:48:47;;;;;;;;;;;;;;;14.83;54.12;101389.00;6296780;28;19966;-84
2021/10/19 09:51:48;;;;;;;;;;;;;;;14.79;51.69;101392.75;6296786;28;19920;-82
2021/10/19 09:54:52;;;;;;;;;;;;;;;14.81;52.46;101385.63;6296209;28;20019;-84
2021/10/19 09:57:53;;;;;;;;;;;;;;;14.95;52.68;101387.44;6297186;28;19921;-84
2021/10/19 10:00:54;;;;;;;;;;;;;;;15.07;51.32;101380.59;6298072;28;19920;-85
2021/10/19 10:03:55;;;;;;;;;;;;;;;15.22;51.64;101384.13;6297573;28;19969;-87
2021/10/19 10:06:57;;;;;;;;;;;;;;;15.40;52.32;101374.28;6297226;28;20287;-84
2021/10/19 10:09:58;;;;;;;;;;;;;;;15.40;50.43;101375.16;6279697;28;19963;-86
2021/10/19 10:13:02;;;;;;;;;;;;;;;15.25;50.60;101376.88;6297663;28;19924;-83
2021/10/19 10:16:09;;;;;;;;;;;;;;;15.46;50.87;101369.53;6296317;28;19920;-85
2021/10/19 10:19:10;;;;;;;;;;;;;;;15.67;51.43;101367.34;6296409;28;19953;-83
2021/10/19 10:22:15;;;;;;;;;;;;;;;15.66;50.06;101365.66;6279795;28;19934;-83
2021/10/19 10:25:17;;;;;;;;;;;;;;;15.67;49.77;101361.25;6295891;28;19927;-81
2021/10/19 10:28:24;;;;;;;;;;;;;;;15.58;49.67;101353.91;6296775;28;20018;-84
2021/10/19 10:31:25;;;;;;;;;;;;;;;15.77;50.58;101354.47;6296959;28;20446;-82
2021/10/19 10:34:29;;;;;;;;;;;;;;;15.98;51.24;101359.34;6279266;28;19990;-83
2021/10/19 10:37:36;;;;;;;;;;;;;;;15.77;49.66;101349.22;6295696;28;19920;-84
2021/10/19 10:40:38;;;;;;;;;;;;;;;15.95;49.92;101344.59;6295437;28;20296;-83
2021/10/19 10:43:39;;;;;;;;;;;;;;;16.05;48.72;101350.13;6295428;28;19920;-84
2021/10/19 10:46:40;;;;;;;;;;;;;;;16.08;48.92;101349.94;6296778;28;19974;-82
2021/10/19 10:49:41;;;;;;;;;;;;;;;16.20;48.37;101340.41;6295481;28;20312;-84
2021/10/19 10:52:41;;;;;;;;;;;;;;;16.22;48.83;101338.53;6295449;28;19928;-83
2021/10/19 10:55:51;;;;;;;;;;;;;;;16.37;49.85;101348.09;6278944;28;19924;-84
2021/10/19 10:58:52;;;;;;;;;;;;;;;16.36;48.31;101343.75;6295892;28;19921;-85
2021/10/19 11:01:58;;;;;;;;;;;;;;;16.55;48.81;101340.75;6295404;28;20281;-85
2021/10/19 11:04:59;;;;;;;;;;;;;;;16.40;47.79;101333.84;6278898;28;20384;-85
2021/10/19 11:08:00;;;;;;;;;;;;;;;16.56;47.01;101326.63;6295443;28;19920;-85
2021/10/19 11:11:01;;;;;;;;;;;;;;;16.65;47.13;101333.91;6295731;28;19927;-86
2021/10/19 11:14:03;;;;;;;;;;;;;;;16.75;47.88;101317.50;6296627;28;19920;-86
2021/10/19 11:17:04;;;;;;;;;;;;;;;16.80;46.57;101316.25;6295306;28;19920;-84
2021/10/19 11:20:04;;;;;;;;;;;;;;;16.87;46.80;101311.44;6294630;28;19927;-83
2021/10/19 11:23:05;;;;;;;;;;;;;;;16.90;46.47;101312.09;6316604;28;20389;-84
2021/10/19 11:26:07;;;;;;;;;;;;;;;16.80;46.46;101304.84;6312187;28;19965;-84
2021/10/19 11:29:08;;;;;;;;;;;;;;;16.64;45.53;101291.88;6320713;28;19924;-85
2021/10/19 11:32:14;;;;;;;;;;;;;;;16.67;46.18;101302.19;6320142;28;20303;-85
2021/10/19 11:35:15;;;;;;;;;;;;;;;16.84;45.83;101298.47;6320209;28;20350;-84
2021/10/19 11:38:16;;;;;;;;;;;;;;;16.89;45.31;101285.81;6320235;28;19927;-85
2021/10/19 11:41:18;;;;;;;;;;;;;;;16.97;47.25;101280.88;6303520;28;19924;-86
2021/10/19 11:44:19;;;;;;;;;;;;;;;16.95;44.84;101285.41;6320358;28;19920;-85
2021/10/19 11:47:20;;;;;;;;;;;;;;;16.90;48.05;101283.09;6320970;28;19927;-85
2021/10/19 11:50:22;;;;;;;;;;;;;;;16.74;44.10;101274.50;6304013;28;19920;-85
2021/10/19 11:53:23;;;;;;;;;;;;;;;16.59;46.37;101267.63;6320569;28;19920;-84
2021/10/19 11:56:24;;;;;;;;;;;;;;;16.94;46.78;101267.06;6320850;28;20432;-85
2021/10/19 11:59:25;;;;;;;;;;;;;;;17.08;45.91;101261.69;6320656;28;20397;-84
2021/10/19 12:02:28;;;;;;;;;;;;;;;17.09;46.01;101264.22;6303682;28;19919;-84
2021/10/19 12:05:29;;;;;;;;;;;;;;;17.13;44.14;101262.19;6303960;28;20374;-85
2021/10/19 12:08:31;;;;;;;;;;;;;;;17.18;44.61;101260.09;6303568;28;20356;-86
2021/10/19 12:11:32;;;;;;;;;;;;;;;17.30;44.13;101253.13;6313011;28;19921;-85
2021/10/19 12:14:34;;;;;;;;;;;;;;;17.29;44.42;101257.53;6286984;28;19927;-82
2021/10/19 12:17:34;;;;;;;;;;;;;;;17.15;45.16;101252.38;6296097;28;20292;-86
2021/10/19 12:20:36;;;;;;;;;;;;;;;16.79;45.04;101253.09;6278028;28;19921;-88
2021/10/19 12:23:38;;;;;;;;;;;;;;;16.83;46.02;101247.53;6294640;28;19921;-89
2021/10/19 12:26:39;;;;;;;;;;;;;;;16.87;44.97;101243.75;6279045;28;19974;-87
2021/10/19 12:29:39;;;;;;;;;;;;;;;16.80;45.69;101241.59;6286896;28;19919;-88
2021/10/19 12:32:41;;;;;;;;;;;;;;;16.82;45.80;101245.00;6306062;28;19919;-89
2021/10/19 12:35:49;;;;;;;;;;;;;;;16.80;46.87;101236.31;6307475;28;20334;-86
2021/10/19 12:38:51;;;;;;;;;;;;;;;16.71;46.23;101237.81;6308021;28;19927;-84
2021/10/19 12:41:52;;;;;;;;;;;;;;;16.75;46.21;101233.19;6307412;28;20439;-86
2021/10/19 12:44:54;;;;;;;;;;;;;;;16.60;46.38;101225.38;6307784;28;19920;-89
2021/10/19 12:48:01;;;;;;;;;;;;;;;16.77;46.09;101228.66;6307782;28;20159;-88
2021/10/19 12:51:02;;;;;;;;;;;;;;;16.75;48.16;101223.47;6307807;28;19923;-87
2021/10/19 12:54:03;;;;;;;;;;;;;;;16.55;45.96;101219.56;6317785;28;19973;-88
2021/10/19 12:57:05;;;;;;;;;;;;;;;16.60;47.53;101219.25;6313001;28;20344;-86
2021/10/19 13:00:06;;;;;;;;;;;;;;;16.58;48.31;101226.44;6314336;28;19920;-84
2021/10/19 13:03:06;;;;;;;;;;;;;;;16.58;46.32;101226.44;6314551;28;20268;-85
2021/10/19 13:06:08;;;;;;;;;;;;;;;16.62;45.93;101226.09;6331148;28;19959;-86
2021/10/19 13:09:08;;;;;;;;;;;;;;;16.58;46.04;101223.78;6314538;28;19924;-84
2021/10/19 13:12:09;;;;;;;;;;;;;;;16.57;47.80;101225.56;6349189;28;19927;-85
2021/10/19 13:15:09;;;;;;;;;;;;;;;16.51;47.38;101223.34;6314291;28;19969;-85
2021/10/19 13:18:10;;;;;;;;;;;;;;;16.46;47.74;101228.91;6314045;28;19955;-86
2021/10/19 13:21:12;;;;;;;;;;;;;;;16.49;48.40;101231.38;6314518;28;19923;-84
2021/10/19 13:24:12;;;;;;;;;;;;;;;16.57;47.71;101230.81;6330555;28;20341;-86
2021/10/19 13:27:13;;;;;;;;;;;;;;;16.53;48.50;101226.72;6313437;28;19920;-86
2021/10/19 13:30:14;;;;;;;;;;;;;;;16.28;46.72;101233.63;6330456;28;19919;-86
2021/10/19 13:33:16;;;;;;;;;;;;;;;16.35;48.00;101236.72;6314032;28;20295;-85
2021/10/19 13:36:16;;;;;;;;;;;;;;;16.39;45.99;101226.78;6348629;28;19920;-84
2021/10/19 13:39:21;;;;;;;;;;;;;;;16.33;47.08;101235.97;6313592;28;19923;-85
2021/10/19 13:42:22;;;;;;;;;;;;;;;16.29;46.59;101229.22;6329811;28;20269;-84
2021/10/19 13:45:22;;;;;;;;;;;;;;;16.32;48.61;101223.72;6313111;28;19920;-86
2021/10/19 13:48:24;;;;;;;;;;;;;;;16.15;48.35;101230.13;6313259;28;20012;-86
2021/10/19 13:51:24;;;;;;;;;;;;;;;16.04;48.59;101229.97;6330218;28;19926;-84
2021/10/19 13:54:27;;;;;;;;;;;;;;;16.10;47.78;101216.41;6313280;28;20371;-86
2021/10/19 13:57:27;;;;;;;;;;;;;;;16.01;48.13;101199.44;6313611;28;19964;-85
2021/10/19 14:00:28;;;;;;;;;;;;;;;15.98;49.26;101204.03;6313259;28;19924;-86
2021/10/19 14:03:29;;;;;;;;;;;;;;;15.81;49.01;101205.16;6313416;28;19942;-87
2021/10/19 14:06:30;;;;;;;;;;;;;;;15.73;50.56;101200.41;6329951;28;20268;-86
2021/10/19 14:09:30;;;;;;;;;;;;;;;15.65;50.03;101200.84;6348212;28;19966;-85
2021/10/19 14:12:31;;;;;;;;;;;;;;;15.54;50.94;101192.78;6330062;28;19924;-87
2021/10/19 14:15:32;;;;;;;;;;;;;;;15.60;48.70;101189.75;6329905;28;20375;-86
2021/10/19 14:18:32;;;;;;;;;;;;;;;15.55;48.52;101181.34;6329714;28;19959;-89
2021/10/19 14:21:34;;;;;;;;;;;;;;;15.45;48.92;101185.50;6347594;28;19929;-85
2021/10/19 14:24:35;;;;;;;;;;;;;;;15.44;48.82;101191.69;6329840;28;19966;-85
2021/10/19 14:27:35;;;;;;;;;;;;;;;15.31;50.41;101200.34;6329325;28;19926;-87
2021/10/19 14:30:36;;;;;;;;;;;;;;;15.18;51.50;101199.44;6329595;28;20006;-85
2021/10/19 14:33:36;;;;;;;;;;;;;;;15.09;51.47;101189.47;6312533;28;19919;-85
2021/10/19 14:36:37;;;;;;;;;;;;;;;15.01;52.68;101183.84;6312323;28;19919;-86
2021/10/19 14:39:38;;;;;;;;;;;;;;;15.04;50.96;101178.41;6312435;28;19924;-86
2021/10/19 14:42:39;;;;;;;;;;;;;;;15.03;50.97;101174.94;6312307;28;19920;-86
2021/10/19 14:45:40;;;;;;;;;;;;;;;15.03;51.49;101171.47;6312226;28;20296;-85
2021/10/19 14:48:40;;;;;;;;;;;;;;;14.97;51.57;101166.59;6328743;28;19959;-86
2021/10/19 14:51:41;;;;;;;;;;;;;;;14.96;52.44;101157.03;6328824;28;20012;-85
2021/10/19 14:54:42;;;;;;;;;;;;;;;14.94;52.26;101165.00;6311954;28;19920;-86
2021/10/19 14:57:44;;;;;;;;;;;;;;;14.94;52.11;101162.38;6328837;28;19919;-86
2021/10/19 15:00:44;;;;;;;;;;;;;;;14.88;52.09;101149.59;6312701;28;19920;-87
2021/10/19 15:03:45;;;;;;;;;;;;;;;14.86;52.71;101148.84;6311881;28;19927;-87
2021/10/19 15:06:47;;;;;;;;;;;;;;;14.74;52.94;101153.06;6328710;28;19927;-86
2021/10/19 15:09:47;;;;;;;;;;;;;;;14.69;52.93;101150.72;6328402;28;19926;-87
2021/10/19 15:12:48;;;;;;;;;;;;;;;14.65;54.38;101149.22;6328433;28;19924;-86
2021/10/19 15:15:49;;;;;;;;;;;;;;;14.55;54.74;101153.31;6328416;28;19924;-86
2021/10/19 15:18:49;;;;;;;;;;;;;;;14.44;55.39;101161.00;6311885;28;20304;-86
2021/10/19 15:21:50;;;;;;;;;;;;;;;14.29;56.61;101160.13;6311752;28;20433;-87
2021/10/19 15:24:51;;;;;;;;;;;;;;;14.21;56.31;101155.34;6346480;28;19919;-87
2021/10/19 15:27:54;;;;;;;;;;;;;;;14.10;56.97;101152.47;6328234;28;19920;-87
2021/10/19 15:30:56;;;;;;;;;;;;;;;13.96;57.15;101148.06;6328160;28;20028;-87